createdAt,value
2022-11-24T00:00:30.475Z,4.43
2022-11-24T00:02:57.095Z,5.50
2022-11-24T00:05:23.696Z,4.87
2022-11-24T00:07:50.327Z,6.00
2022-11-24T00:10:17.154Z,5.47
2022-11-24T00:12:43.630Z,5.20
2022-11-24T00:15:10.257Z,5.87
2022-11-24T00:17:36.706Z,10.33
2022-11-24T00:20:03.898Z,9.80
2022-11-24T00:22:30.716Z,6.03
2022-11-24T00:24:57.206Z,3.47
2022-11-24T00:27:23.652Z,8.00
2022-11-24T00:29:50.145Z,6.70
2022-11-24T00:32:16.625Z,5.00
2022-11-24T00:34:43.156Z,6.80
2022-11-24T00:37:09.624Z,6.90
2022-11-24T00:39:36.559Z,9.63
2022-11-24T00:42:03.297Z,6.57
2022-11-24T00:44:29.877Z,6.83
2022-11-24T00:46:56.602Z,7.17
2022-11-24T00:49:23.132Z,6.83
2022-11-24T00:51:49.596Z,5.33
2022-11-24T00:54:16.238Z,6.13
2022-11-24T00:56:42.909Z,4.50
2022-11-24T00:59:09.697Z,6.73
2022-11-24T01:01:36.442Z,5.30
2022-11-24T01:04:03.768Z,5.60
2022-11-24T01:06:31.213Z,6.37
2022-11-24T01:08:58.052Z,9.17
2022-11-24T01:11:54.352Z,6.87
2022-11-24T01:14:25.104Z,7.67
2022-11-24T01:16:51.802Z,10.80
2022-11-24T01:19:19.160Z,6.93
2022-11-24T01:21:45.809Z,5.47
2022-11-24T01:24:13.245Z,7.83
2022-11-24T01:26:40.029Z,7.17
2022-11-24T01:29:06.516Z,5.67
2022-11-24T01:31:33.220Z,5.97
2022-11-24T01:33:59.692Z,6.33
2022-11-24T01:36:26.161Z,8.10
2022-11-24T01:38:52.643Z,8.73
2022-11-24T01:41:25.573Z,7.40
2022-11-24T01:43:54.052Z,7.30
2022-11-24T01:46:34.008Z,9.70
2022-11-24T01:49:15.141Z,10.93
2022-11-24T01:51:46.308Z,9.10
2022-11-24T01:54:24.834Z,10.63
2022-11-24T01:56:56.623Z,10.57
2022-11-24T01:59:24.120Z,11.03
2022-11-24T02:01:51.700Z,8.97
2022-11-24T02:04:24.313Z,8.03
2022-11-24T02:06:52.613Z,7.77
2022-11-24T02:09:25.322Z,11.30
2022-11-24T02:11:54.712Z,11.57
2022-11-24T02:14:23.806Z,11.57
2022-11-24T02:16:51.411Z,10.30
2022-11-24T02:19:31.635Z,11.80
2022-11-24T02:21:58.667Z,13.47
2022-11-24T02:24:39.488Z,9.30
2022-11-24T02:27:06.084Z,8.63
2022-11-24T02:29:32.735Z,8.37
2022-11-24T02:32:03.277Z,11.80
2022-11-24T02:34:29.873Z,15.13
2022-11-24T02:36:56.345Z,15.50
2022-11-24T02:39:22.813Z,13.27
2022-11-24T02:41:53.784Z,12.60
2022-11-24T02:44:24.331Z,13.20
2022-11-24T02:47:01.754Z,11.17
2022-11-24T02:49:28.399Z,9.30
2022-11-24T02:51:55.015Z,9.90
2022-11-24T02:54:21.473Z,12.30
2022-11-24T02:56:47.920Z,13.67
2022-11-24T02:59:14.712Z,11.23
2022-11-24T03:01:41.347Z,9.27
2022-11-24T03:04:07.925Z,12.90
2022-11-24T03:06:34.427Z,12.87
2022-11-24T03:09:01.147Z,9.53
2022-11-24T03:11:27.582Z,9.90
2022-11-24T03:13:54.066Z,12.30
2022-11-24T03:16:20.604Z,8.07
2022-11-24T03:18:48.246Z,12.33
2022-11-24T03:21:14.698Z,13.57
2022-11-24T03:23:41.151Z,14.63
2022-11-24T03:26:13.422Z,11.73
2022-11-24T03:28:40.266Z,11.90
2022-11-24T03:31:07.758Z,13.87
2022-11-24T03:33:34.818Z,15.43
2022-11-24T03:36:01.974Z,12.90
2022-11-24T03:38:28.641Z,12.07
2022-11-24T03:40:55.133Z,14.53
2022-11-24T03:43:21.583Z,12.77
2022-11-24T03:45:49.356Z,14.43
2022-11-24T03:48:17.533Z,9.37
2022-11-24T03:50:51.953Z,14.47
2022-11-24T03:53:18.392Z,12.40
2022-11-24T03:55:44.828Z,12.00
2022-11-24T03:58:11.448Z,17.90
2022-11-24T04:00:37.957Z,16.60
2022-11-24T04:03:04.465Z,10.37
2022-11-24T04:05:31.136Z,13.97
2022-11-24T04:07:57.712Z,13.57
2022-11-24T04:10:25.040Z,12.30
2022-11-24T04:12:51.566Z,14.37
2022-11-24T04:15:19.518Z,16.20
2022-11-24T04:17:46.981Z,10.13
2022-11-24T04:20:14.249Z,12.23
2022-11-24T04:22:40.989Z,14.03
2022-11-24T04:25:09.169Z,13.20
2022-11-24T04:27:36.780Z,13.20
2022-11-24T04:30:08.728Z,15.07
2022-11-24T04:32:35.969Z,10.73
2022-11-24T04:35:04.601Z,11.27
2022-11-24T04:37:31.380Z,9.27
2022-11-24T04:39:57.876Z,10.83
2022-11-24T04:42:24.574Z,11.00
2022-11-24T04:44:51.040Z,12.23
2022-11-24T04:47:21.292Z,11.17
2022-11-24T04:49:49.074Z,13.60
2022-11-24T04:52:21.006Z,18.27
2022-11-24T04:54:48.621Z,13.27
2022-11-24T04:57:25.737Z,15.73
2022-11-24T04:59:53.527Z,8.60
2022-11-24T05:02:20.269Z,8.33
2022-11-24T05:04:47.131Z,13.13
2022-11-24T05:07:18.781Z,12.23
2022-11-24T05:10:12.604Z,12.30
2022-11-24T05:12:39.442Z,11.87
2022-11-24T05:15:06.862Z,9.77
2022-11-24T05:17:36.448Z,6.60
2022-11-24T05:20:06.122Z,10.57
2022-11-24T05:22:32.704Z,16.47
2022-11-24T05:24:59.389Z,14.63
2022-11-24T05:27:26.086Z,10.70
2022-11-24T05:29:52.559Z,14.83
2022-11-24T05:32:19.031Z,13.23
2022-11-24T05:34:45.531Z,14.77
2022-11-24T05:37:12.007Z,12.47
2022-11-24T05:39:38.488Z,12.20
2022-11-24T05:42:25.508Z,14.40
2022-11-24T05:44:52.549Z,26.07
2022-11-24T05:47:19.832Z,22.33
2022-11-24T05:49:46.765Z,15.17
2022-11-24T05:52:13.730Z,22.17
2022-11-24T05:54:40.222Z,10.53
2022-11-24T05:57:06.882Z,12.10
2022-11-24T05:59:33.861Z,9.97
2022-11-24T06:02:00.387Z,17.20
2022-11-24T06:04:27.884Z,11.67
2022-11-24T06:06:54.467Z,11.20
2022-11-24T06:09:21.136Z,22.17
2022-11-24T06:11:48.277Z,14.13
2022-11-24T06:14:14.873Z,20.10
2022-11-24T06:16:41.588Z,15.60
2022-11-24T06:19:10.495Z,17.90
2022-11-24T06:21:37.307Z,12.03
2022-11-24T06:24:04.663Z,16.77
2022-11-24T06:26:31.794Z,12.37
2022-11-24T06:28:59.389Z,12.73
2022-11-24T06:31:26.137Z,18.07
2022-11-24T06:33:53.198Z,19.83
2022-11-24T06:36:19.672Z,15.10
2022-11-24T06:38:46.101Z,11.53
2022-11-24T06:41:15.444Z,15.90
2022-11-24T06:43:42.048Z,13.30
2022-11-24T06:46:08.687Z,16.37
2022-11-24T06:48:35.853Z,13.73
2022-11-24T06:51:06.371Z,19.73
2022-11-24T06:53:38.300Z,15.73
2022-11-24T06:56:15.715Z,12.40
2022-11-24T06:58:48.429Z,11.83
2022-11-24T07:01:20.162Z,12.10
2022-11-24T07:03:48.418Z,17.93
2022-11-24T07:06:16.315Z,18.10
2022-11-24T07:08:43.020Z,16.90
2022-11-24T07:11:15.411Z,18.63
2022-11-24T07:13:43.048Z,14.27
2022-11-24T07:16:26.501Z,14.20
2022-11-24T07:18:54.276Z,11.30
2022-11-24T07:21:22.561Z,17.07
2022-11-24T07:23:54.607Z,18.67
2022-11-24T07:26:22.319Z,15.23
2022-11-24T07:28:48.981Z,12.83
2022-11-24T07:31:18.890Z,17.10
2022-11-24T07:33:53.296Z,12.87
2022-11-24T07:36:20.156Z,12.50
2022-11-24T07:38:46.750Z,14.43
2022-11-24T07:41:15.388Z,20.73
2022-11-24T07:43:42.065Z,12.17
2022-11-24T07:46:11.628Z,17.63
2022-11-24T07:48:38.185Z,17.70
2022-11-24T07:51:05.888Z,15.50
2022-11-24T07:53:33.366Z,11.77
2022-11-24T07:56:02.262Z,18.97
2022-11-24T07:58:32.945Z,17.43
2022-11-24T08:01:00.981Z,16.20
2022-11-24T08:03:27.962Z,14.63
2022-11-24T08:06:22.270Z,13.03
2022-11-24T08:08:42.479Z,17.13
2022-11-24T08:11:14.384Z,14.53
2022-11-24T08:13:41.331Z,15.00
2022-11-24T08:16:10.217Z,16.57
2022-11-24T08:18:37.537Z,15.23
2022-11-24T08:21:05.091Z,15.50
2022-11-24T08:23:32.550Z,13.33
2022-11-24T08:26:05.027Z,16.27
2022-11-24T08:28:32.369Z,14.30
2022-11-24T08:31:07.628Z,10.90
2022-11-24T08:33:34.957Z,16.80
2022-11-24T08:36:12.828Z,17.20
2022-11-24T08:38:39.914Z,18.27
2022-11-24T08:41:09.751Z,18.87
2022-11-24T08:43:36.803Z,12.80
2022-11-24T08:46:11.421Z,14.47
2022-11-24T08:48:38.138Z,19.27
2022-11-24T08:51:13.145Z,18.07
2022-11-24T08:53:41.016Z,17.33
2022-11-24T08:56:08.984Z,12.77
2022-11-24T08:58:36.271Z,17.00
2022-11-24T09:01:10.452Z,18.70
2022-11-24T09:03:43.551Z,13.37
2022-11-24T09:06:16.776Z,19.17
2022-11-24T09:08:43.235Z,12.83
2022-11-24T09:11:12.754Z,19.33
2022-11-24T09:13:40.075Z,12.67
2022-11-24T09:16:15.798Z,14.80
2022-11-24T09:18:42.979Z,17.57
2022-11-24T09:21:20.862Z,16.23
2022-11-24T09:23:49.094Z,19.20
2022-11-24T09:26:18.468Z,15.63
2022-11-24T09:28:45.737Z,14.77
2022-11-24T09:31:14.508Z,12.37
2022-11-24T09:33:41.427Z,17.77
2022-11-24T09:36:08.492Z,15.33
2022-11-24T09:38:35.589Z,20.67
2022-11-24T09:41:26.536Z,13.40
2022-11-24T09:44:20.773Z,16.63
2022-11-24T09:47:05.652Z,17.77
2022-11-24T09:50:01.259Z,13.73
2022-11-24T09:53:05.493Z,16.83
2022-11-24T09:55:39.588Z,15.53
2022-11-24T09:58:32.636Z,18.93
2022-11-24T10:01:04.129Z,16.23
2022-11-24T10:03:41.870Z,16.73
2022-11-24T10:06:48.097Z,15.10
2022-11-24T10:09:23.870Z,17.70
2022-11-24T10:12:15.707Z,12.90
2022-11-24T10:15:01.107Z,17.13
2022-11-24T10:17:46.863Z,13.53
2022-11-24T10:20:45.644Z,15.07
2022-11-24T10:23:24.304Z,15.23
2022-11-24T10:25:58.088Z,17.13
2022-11-24T10:28:53.613Z,19.23
2022-11-24T10:31:32.485Z,15.30
2022-11-24T10:34:04.086Z,18.70
2022-11-24T10:36:53.192Z,17.03
2022-11-24T10:39:26.720Z,13.20
2022-11-24T10:42:23.727Z,15.47
2022-11-24T10:45:00.531Z,13.20
2022-11-24T10:47:27.771Z,18.17
2022-11-24T10:50:20.593Z,11.97
2022-11-24T10:52:55.202Z,13.83
2022-11-24T10:55:21.837Z,15.80
2022-11-24T10:57:48.382Z,14.83
2022-11-24T11:00:21.174Z,15.13
2022-11-24T11:02:49.885Z,19.03
2022-11-24T11:05:31.525Z,20.17
2022-11-24T11:08:31.612Z,18.73
2022-11-24T11:11:16.726Z,12.07
2022-11-24T11:13:56.917Z,14.67
2022-11-24T11:16:46.067Z,19.33
2022-11-24T11:20:01.821Z,16.43
2022-11-24T11:22:36.669Z,29.50
2022-11-24T11:25:15.183Z,19.00
2022-11-24T11:27:42.502Z,16.57
2022-11-24T11:36:13.956Z,17.03
2022-11-24T11:38:42.852Z,14.83
2022-11-24T11:41:21.813Z,14.63
2022-11-24T11:43:54.570Z,15.07
2022-11-24T11:46:21.244Z,19.63
2022-11-24T11:48:49.015Z,15.20
2022-11-24T11:51:45.152Z,15.07
2022-11-24T11:54:49.701Z,16.53
2022-11-24T11:57:45.445Z,16.70
2022-11-24T12:00:22.311Z,15.63
2022-11-24T12:03:00.642Z,11.20
2022-11-24T12:05:42.008Z,14.33
2022-11-24T12:08:22.402Z,12.10
2022-11-24T12:11:14.737Z,8.20
2022-11-24T12:13:54.847Z,12.07
2022-11-24T12:16:33.983Z,10.03
2022-11-24T12:19:19.608Z,11.53
2022-11-24T12:22:04.699Z,13.63
2022-11-24T12:25:02.816Z,9.37
2022-11-24T12:27:39.636Z,12.23
2022-11-24T12:30:20.527Z,17.17
2022-11-24T12:33:08.825Z,11.97
2022-11-24T12:35:48.667Z,12.40
2022-11-24T12:38:33.999Z,8.57
2022-11-24T12:41:40.952Z,12.27
2022-11-24T12:44:35.399Z,8.30
2022-11-24T12:47:18.285Z,9.80
2022-11-24T12:50:11.006Z,10.60
2022-11-24T12:53:08.067Z,9.57
2022-11-24T12:55:34.862Z,10.73
2022-11-24T12:58:31.299Z,11.20
2022-11-24T13:01:18.449Z,12.23
2022-11-24T13:03:51.040Z,11.87
2022-11-24T13:06:26.640Z,10.50
2022-11-24T13:08:53.460Z,13.43
2022-11-24T13:11:22.931Z,14.13
2022-11-24T13:14:27.831Z,11.33
2022-11-24T13:17:27.964Z,12.07
2022-11-24T13:19:43.433Z,9.10
2022-11-24T13:22:15.518Z,10.53
2022-11-24T13:24:43.016Z,12.13
2022-11-24T13:27:15.833Z,15.70
2022-11-24T13:29:44.443Z,12.50
2022-11-24T13:32:11.767Z,18.80
2022-11-24T13:34:42.614Z,10.60
2022-11-24T13:37:35.047Z,12.03
2022-11-24T13:40:11.997Z,13.47
2022-11-24T13:43:02.951Z,10.63
2022-11-24T13:45:50.558Z,11.67
2022-11-24T13:48:20.222Z,14.70
2022-11-24T13:50:50.300Z,11.63
2022-11-24T13:53:36.967Z,13.77
2022-11-24T13:56:12.591Z,9.67
2022-11-24T13:58:41.708Z,23.63
2022-11-24T14:01:30.599Z,11.40
2022-11-24T14:06:54.853Z,7.53
2022-11-24T14:09:31.433Z,11.27
2022-11-24T14:12:13.348Z,9.80
2022-11-24T14:14:40.841Z,11.20
2022-11-24T14:17:13.384Z,9.53
2022-11-24T14:19:41.390Z,10.97
2022-11-24T14:22:38.088Z,11.00
2022-11-24T14:25:05.868Z,10.60
2022-11-24T14:27:35.789Z,9.73
2022-11-24T14:30:16.889Z,11.83
2022-11-24T14:33:00.551Z,10.30
2022-11-24T14:35:30.791Z,10.13
2022-11-24T14:37:58.295Z,10.90
2022-11-24T14:40:46.466Z,11.87
2022-11-24T14:43:20.462Z,9.97
2022-11-24T14:46:00.539Z,9.43
2022-11-24T14:48:30.678Z,9.77
2022-11-24T14:51:21.431Z,12.97
2022-11-24T14:53:52.172Z,8.73
2022-11-24T14:56:27.756Z,11.97
2022-11-24T14:58:55.936Z,11.77
2022-11-24T15:01:22.476Z,10.40
2022-11-24T15:07:16.953Z,11.07
2022-11-24T15:09:53.637Z,11.00
2022-11-24T15:12:29.006Z,11.23
2022-11-24T15:15:23.916Z,12.97
2022-11-24T15:17:54.286Z,12.30
2022-11-24T15:20:28.331Z,13.17
2022-11-24T15:23:20.940Z,12.37
2022-11-24T15:25:49.948Z,11.17
2022-11-24T15:28:16.793Z,10.27
2022-11-24T15:30:43.359Z,11.30
2022-11-24T15:33:15.015Z,12.60
2022-11-24T15:35:42.334Z,11.60
2022-11-24T15:38:08.967Z,11.53
2022-11-24T15:40:37.260Z,13.50
2022-11-24T15:43:11.813Z,9.73
2022-11-24T15:45:38.288Z,10.30
2022-11-24T15:48:04.960Z,12.27
2022-11-24T15:50:31.656Z,13.63
2022-11-24T15:52:58.322Z,16.03
2022-11-24T15:55:24.925Z,11.73
2022-11-24T15:57:51.461Z,12.77
2022-11-24T16:00:21.404Z,13.60
2022-11-24T16:02:48.581Z,14.57
2022-11-24T16:05:16.913Z,13.20
2022-11-24T16:07:44.370Z,12.97
2022-11-24T16:10:25.904Z,14.50
2022-11-24T16:12:52.444Z,13.43
2022-11-24T16:15:19.222Z,12.93
2022-11-24T16:17:46.320Z,15.90
2022-11-24T16:20:12.949Z,13.93
2022-11-24T16:22:40.029Z,15.37
2022-11-24T16:25:07.551Z,16.80
2022-11-24T16:27:34.398Z,13.53
2022-11-24T16:30:01.766Z,18.60
2022-11-24T16:32:29.187Z,13.33
2022-11-24T16:34:55.801Z,20.57
2022-11-24T16:37:22.606Z,15.00
2022-11-24T16:39:50.524Z,13.40
2022-11-24T16:42:17.097Z,15.63
2022-11-24T16:44:43.632Z,18.27
2022-11-24T16:47:11.970Z,20.10
2022-11-24T16:49:39.106Z,34.50
2022-11-24T16:52:05.797Z,17.47
2022-11-24T16:54:32.724Z,18.33
2022-11-24T16:56:59.710Z,15.80
2022-11-24T16:59:26.196Z,18.63
2022-11-24T17:01:52.839Z,19.97
2022-11-24T17:04:19.481Z,17.37
2022-11-24T17:06:46.089Z,16.10
2022-11-24T17:09:12.576Z,15.63
2022-11-24T17:11:39.059Z,11.80
2022-11-24T17:14:05.981Z,13.50
2022-11-24T17:16:32.687Z,17.57
2022-11-24T17:18:59.998Z,14.00
2022-11-24T17:21:27.853Z,14.70
2022-11-24T17:23:56.005Z,14.40
2022-11-24T17:26:23.863Z,18.23
2022-11-24T17:28:50.468Z,17.27
2022-11-24T17:31:27.283Z,20.60
2022-11-24T17:33:56.490Z,15.53
2022-11-24T17:36:23.670Z,16.23
2022-11-24T17:38:50.252Z,13.20
2022-11-24T17:41:17.979Z,13.93
2022-11-24T17:43:51.541Z,20.80
2022-11-24T17:46:18.611Z,17.93
2022-11-24T17:48:46.542Z,17.23
2022-11-24T17:51:15.713Z,17.90
2022-11-24T17:53:43.944Z,15.80
2022-11-24T17:56:14.553Z,17.70
2022-11-24T17:58:43.073Z,16.03
2022-11-24T18:01:10.966Z,17.07
2022-11-24T18:03:39.193Z,13.70
2022-11-24T18:06:08.997Z,15.20
2022-11-24T18:08:37.059Z,20.27
2022-11-24T18:11:07.606Z,19.87
2022-11-24T18:13:55.715Z,21.27
2022-11-24T18:16:21.060Z,17.23
2022-11-24T18:18:50.426Z,25.77
2022-11-24T18:21:18.125Z,19.37
2022-11-24T18:23:44.844Z,26.30
2022-11-24T18:26:14.881Z,27.80
2022-11-24T18:28:42.678Z,27.40
2022-11-24T18:31:13.790Z,25.37
2022-11-24T18:33:42.354Z,22.67
2022-11-24T18:36:12.506Z,24.70
2022-11-24T18:38:38.967Z,21.50
2022-11-24T18:41:07.058Z,23.03
2022-11-24T18:43:36.111Z,23.93
2022-11-24T18:46:07.744Z,22.57
2022-11-24T18:48:35.018Z,30.17
2022-11-24T18:51:01.871Z,22.30
2022-11-24T18:53:29.296Z,22.77
2022-11-24T18:55:58.706Z,19.87
2022-11-24T18:58:27.101Z,22.70
2022-11-24T19:00:54.961Z,25.30
2022-11-24T19:03:22.643Z,20.77
2022-11-24T19:05:49.092Z,26.53
2022-11-24T19:08:15.905Z,23.87
2022-11-24T19:10:45.213Z,21.23
2022-11-24T19:13:12.715Z,22.60
2022-11-24T19:15:39.210Z,21.33
2022-11-24T19:18:05.834Z,23.73
2022-11-24T19:20:34.156Z,24.17
2022-11-24T19:23:00.733Z,24.67
2022-11-24T19:25:27.168Z,24.20
2022-11-24T19:27:53.673Z,21.57
2022-11-24T19:30:20.228Z,22.40
2022-11-24T19:32:46.698Z,24.00
2022-11-24T19:35:13.314Z,24.40
2022-11-24T19:37:40.081Z,21.40
2022-11-24T19:40:07.385Z,23.33
2022-11-24T19:42:33.866Z,27.90
2022-11-24T19:45:00.665Z,27.03
2022-11-24T19:47:27.948Z,25.87
2022-11-24T19:49:55.784Z,25.50
2022-11-24T19:52:23.036Z,23.63
2022-11-24T19:54:49.612Z,26.67
2022-11-24T19:57:16.068Z,26.63
2022-11-24T19:59:43.304Z,28.30
2022-11-24T20:02:10.533Z,30.97
2022-11-24T20:04:39.707Z,23.47
2022-11-24T20:07:06.159Z,23.47
2022-11-24T20:09:32.836Z,28.17
2022-11-24T20:11:59.437Z,31.10
2022-11-24T20:14:25.961Z,27.47
2022-11-24T20:16:52.598Z,27.17
2022-11-24T20:19:19.146Z,27.20
2022-11-24T20:21:47.732Z,32.37
2022-11-24T20:24:22.500Z,37.90
2022-11-24T20:26:52.193Z,43.73
2022-11-24T20:29:19.198Z,44.70
2022-11-24T20:31:48.926Z,38.07
2022-11-24T20:34:16.166Z,41.60
2022-11-24T20:36:45.231Z,38.33
2022-11-24T20:39:18.512Z,40.80
2022-11-24T20:41:45.093Z,39.43
2022-11-24T20:44:18.040Z,36.27
2022-11-24T20:46:45.983Z,48.60
2022-11-24T20:49:18.224Z,55.03
2022-11-24T20:51:47.578Z,55.07
2022-11-24T20:54:16.900Z,45.23
2022-11-24T20:56:43.973Z,39.47
2022-11-24T20:59:13.953Z,45.43
2022-11-24T21:01:43.514Z,40.87
2022-11-24T21:04:12.460Z,42.40
2022-11-24T21:06:39.639Z,42.27
2022-11-24T21:09:08.303Z,37.77
2022-11-24T21:11:36.056Z,41.50
2022-11-24T21:14:03.655Z,36.13
2022-11-24T21:16:38.823Z,36.67
2022-11-24T21:19:08.676Z,34.50
2022-11-24T21:21:37.232Z,28.90
2022-11-24T21:24:06.488Z,32.03
2022-11-24T21:26:37.763Z,30.90
2022-11-24T21:29:05.726Z,41.07
2022-11-24T21:31:39.097Z,49.07
2022-11-24T21:34:07.461Z,49.67
2022-11-24T21:36:35.107Z,47.17
2022-11-24T21:39:03.139Z,45.20
2022-11-24T21:41:32.566Z,45.17
2022-11-24T21:43:59.292Z,43.23
2022-11-24T21:46:26.039Z,30.87
2022-11-24T21:48:52.525Z,32.57
2022-11-24T21:51:20.939Z,36.60
2022-11-24T21:53:47.761Z,31.90
2022-11-24T21:56:17.400Z,33.73
2022-11-24T21:58:51.651Z,31.23
2022-11-24T22:01:20.787Z,40.43
2022-11-24T22:03:47.563Z,32.70
2022-11-24T22:06:16.834Z,26.90
2022-11-24T22:08:43.490Z,34.17
2022-11-24T22:11:13.927Z,36.43
2022-11-24T22:13:42.148Z,29.60
2022-11-24T22:16:14.242Z,29.27
2022-11-24T22:18:42.543Z,27.07
2022-11-24T22:21:13.051Z,30.63
2022-11-24T22:23:39.924Z,32.43
2022-11-24T22:26:11.217Z,30.70
2022-11-24T22:28:38.092Z,30.83
2022-11-24T22:31:07.276Z,28.70
2022-11-24T22:33:34.568Z,30.33
2022-11-24T22:36:02.071Z,30.77
2022-11-24T22:38:29.916Z,27.87
2022-11-24T22:41:05.077Z,27.67
2022-11-24T22:43:33.435Z,23.17
2022-11-24T22:46:05.336Z,27.13
2022-11-24T22:48:32.241Z,25.20
2022-11-24T22:51:04.983Z,30.10
2022-11-24T22:53:32.149Z,30.27
2022-11-24T22:56:04.973Z,25.90
2022-11-24T22:58:33.019Z,26.57
2022-11-24T23:01:17.545Z,24.80
2022-11-24T23:03:44.738Z,27.93
2022-11-24T23:06:43.090Z,28.10
2022-11-24T23:09:11.838Z,23.20
2022-11-24T23:11:41.715Z,25.57
2022-11-24T23:14:13.302Z,28.90
2022-11-24T23:16:40.074Z,24.53
2022-11-24T23:19:06.630Z,26.07
2022-11-24T23:21:35.257Z,30.20
2022-11-24T23:24:03.852Z,24.90
2022-11-24T23:26:40.741Z,24.00
2022-11-24T23:29:08.025Z,28.40
2022-11-24T23:31:34.974Z,24.80
2022-11-24T23:34:03.822Z,25.70
2022-11-24T23:36:32.006Z,24.43
2022-11-24T23:39:03.843Z,27.97
2022-11-24T23:41:31.889Z,24.67
2022-11-24T23:43:58.566Z,24.30
2022-11-24T23:46:26.849Z,23.53
2022-11-24T23:48:54.486Z,23.07
2022-11-24T23:51:29.558Z,23.73
2022-11-24T23:53:56.894Z,24.80
2022-11-24T23:56:33.596Z,21.37
2022-11-24T23:59:02.146Z,23.43
